createdAt,value
2022-11-07T00:00:29.494Z,84.25
2022-11-07T00:01:29.477Z,84.04
2022-11-07T00:02:29.568Z,84.14
2022-11-07T00:03:29.456Z,84.34
2022-11-07T00:04:29.454Z,84.45
2022-11-07T00:05:29.439Z,84.04
2022-11-07T00:06:29.441Z,83.94
2022-11-07T00:07:29.433Z,84.04
2022-11-07T00:08:29.434Z,84.00
2022-11-07T00:09:29.417Z,83.83
2022-11-07T00:10:29.416Z,84.14
2022-11-07T00:11:29.402Z,83.83
2022-11-07T00:12:29.397Z,84.14
2022-11-07T00:13:29.400Z,84.14
2022-11-07T00:14:29.392Z,84.04
2022-11-07T00:15:29.384Z,84.14
2022-11-07T00:16:29.402Z,84.14
2022-11-07T00:17:29.356Z,84.14
2022-11-07T00:18:29.355Z,84.20
2022-11-07T00:19:29.361Z,84.14
2022-11-07T00:20:29.352Z,83.83
2022-11-07T00:21:29.336Z,83.94
2022-11-07T00:22:29.331Z,84.00
2022-11-07T00:23:29.317Z,84.14
2022-11-07T00:24:29.321Z,83.83
2022-11-07T00:25:29.356Z,84.10
2022-11-07T00:26:29.303Z,84.20
2022-11-07T00:27:29.346Z,84.14
2022-11-07T00:28:29.289Z,84.45
2022-11-07T00:29:29.303Z,84.86
2022-11-07T00:30:29.260Z,84.66
2022-11-07T00:31:29.267Z,84.14
2022-11-07T00:32:29.265Z,84.25
2022-11-07T00:33:29.247Z,84.04
2022-11-07T00:34:29.257Z,83.83
2022-11-07T00:35:29.244Z,83.59
2022-11-07T00:36:29.234Z,83.49
2022-11-07T00:37:29.224Z,84.04
2022-11-07T00:38:29.215Z,83.80
2022-11-07T00:39:29.207Z,84.34
2022-11-07T00:40:29.216Z,84.45
2022-11-07T00:41:29.195Z,84.45
2022-11-07T00:42:29.188Z,84.00
2022-11-07T00:43:29.212Z,84.00
2022-11-07T00:44:29.271Z,84.10
2022-11-07T00:45:29.172Z,84.10
2022-11-07T00:46:29.169Z,84.00
2022-11-07T00:47:29.156Z,84.10
2022-11-07T00:48:29.148Z,84.00
2022-11-07T00:49:29.145Z,84.45
2022-11-07T00:50:29.135Z,84.55
2022-11-07T00:51:29.125Z,84.25
2022-11-07T00:52:29.121Z,83.90
2022-11-07T00:53:29.111Z,84.04
2022-11-07T00:54:29.095Z,83.80
2022-11-07T00:55:29.106Z,84.00
2022-11-07T00:56:29.120Z,84.45
2022-11-07T00:57:29.064Z,84.52
2022-11-07T00:58:29.097Z,84.61
2022-11-07T00:59:29.082Z,84.41
2022-11-07T01:00:29.060Z,84.92
2022-11-07T01:01:29.190Z,84.61
2022-11-07T01:02:29.244Z,84.86
2022-11-07T01:03:29.048Z,84.92
2022-11-07T01:04:29.041Z,84.76
2022-11-07T01:05:29.041Z,84.82
2022-11-07T01:06:29.047Z,85.27
2022-11-07T01:07:29.024Z,84.96
2022-11-07T01:08:29.015Z,85.17
2022-11-07T01:09:29.012Z,85.38
2022-11-07T01:10:28.996Z,84.92
2022-11-07T01:11:29.012Z,85.23
2022-11-07T01:12:28.997Z,84.82
2022-11-07T01:13:28.976Z,84.92
2022-11-07T01:14:28.979Z,85.03
2022-11-07T01:15:28.972Z,84.82
2022-11-07T01:16:28.990Z,85.33
2022-11-07T01:17:28.975Z,85.47
2022-11-07T01:18:28.970Z,85.27
2022-11-07T01:19:28.941Z,85.47
2022-11-07T01:20:28.932Z,85.47
2022-11-07T01:21:28.934Z,85.89
2022-11-07T01:22:28.917Z,85.89
2022-11-07T01:23:28.941Z,85.68
2022-11-07T01:24:28.912Z,86.19
2022-11-07T01:25:28.900Z,85.58
2022-11-07T01:26:28.895Z,86.09
2022-11-07T01:27:28.894Z,86.40
2022-11-07T01:28:28.888Z,85.64
2022-11-07T01:29:28.898Z,86.19
2022-11-07T01:30:28.875Z,85.64
2022-11-07T01:31:28.868Z,86.05
2022-11-07T01:32:28.855Z,86.05
2022-11-07T01:33:28.847Z,86.05
2022-11-07T01:34:28.867Z,85.23
2022-11-07T01:35:28.823Z,85.64
2022-11-07T01:36:28.830Z,85.95
2022-11-07T01:37:28.812Z,85.64
2022-11-07T01:38:28.812Z,85.74
2022-11-07T01:39:28.816Z,86.25
2022-11-07T01:40:28.801Z,85.64
2022-11-07T01:41:28.789Z,85.64
2022-11-07T01:42:28.783Z,85.64
2022-11-07T01:43:28.772Z,85.54
2022-11-07T01:44:28.772Z,86.15
2022-11-07T01:45:28.773Z,86.05
2022-11-07T01:46:28.748Z,85.85
2022-11-07T01:47:28.747Z,86.15
2022-11-07T01:48:28.740Z,86.05
2022-11-07T01:49:28.736Z,85.85
2022-11-07T01:50:28.727Z,86.57
2022-11-07T01:51:28.712Z,86.15
2022-11-07T01:52:28.710Z,85.95
2022-11-07T01:53:28.716Z,86.66
2022-11-07T01:54:28.701Z,86.87
2022-11-07T01:55:28.715Z,86.36
2022-11-07T01:56:28.679Z,86.05
2022-11-07T01:57:28.683Z,86.66
2022-11-07T01:58:28.676Z,86.15
2022-11-07T01:59:28.665Z,86.15
2022-11-07T02:00:28.671Z,85.95
2022-11-07T02:01:28.754Z,86.87
2022-11-07T02:02:28.800Z,86.87
2022-11-07T02:03:28.640Z,86.87
2022-11-07T02:04:28.651Z,86.77
2022-11-07T02:05:28.629Z,86.66
2022-11-07T02:06:28.628Z,86.57
2022-11-07T02:07:28.612Z,86.46
2022-11-07T02:08:28.613Z,86.98
2022-11-07T02:09:28.594Z,86.98
2022-11-07T02:10:28.594Z,86.46
2022-11-07T02:11:28.600Z,86.66
2022-11-07T02:12:28.581Z,86.46
2022-11-07T02:13:28.581Z,86.46
2022-11-07T02:14:28.568Z,87.28
2022-11-07T02:15:28.563Z,86.66
2022-11-07T02:16:29.572Z,86.66
2022-11-07T02:17:28.548Z,86.46
2022-11-07T02:18:28.543Z,86.57
2022-11-07T02:19:28.527Z,86.57
2022-11-07T02:20:28.528Z,86.57
2022-11-07T02:21:28.528Z,86.87
2022-11-07T02:22:28.512Z,86.46
2022-11-07T02:23:28.496Z,86.46
2022-11-07T02:24:28.513Z,87.18
2022-11-07T02:25:28.490Z,86.46
2022-11-07T02:26:28.500Z,86.46
2022-11-07T02:27:28.496Z,87.08
2022-11-07T02:28:28.470Z,87.22
2022-11-07T02:29:28.452Z,87.38
2022-11-07T02:30:29.471Z,87.73
2022-11-07T02:31:28.452Z,87.53
2022-11-07T02:32:28.463Z,88.24
2022-11-07T02:33:28.439Z,87.94
2022-11-07T02:34:28.436Z,88.21
2022-11-07T02:35:28.424Z,87.63
2022-11-07T02:36:28.420Z,87.63
2022-11-07T02:37:28.415Z,87.73
2022-11-07T02:38:28.415Z,88.24
2022-11-07T02:39:28.402Z,88.56
2022-11-07T02:40:28.399Z,88.56
2022-11-07T02:41:28.386Z,88.35
2022-11-07T02:42:28.373Z,88.35
2022-11-07T02:43:28.375Z,88.39
2022-11-07T02:44:28.366Z,88.14
2022-11-07T02:45:28.367Z,88.86
2022-11-07T02:46:28.354Z,88.66
2022-11-07T02:47:28.344Z,88.70
2022-11-07T02:48:28.359Z,88.76
2022-11-07T02:49:28.336Z,88.66
2022-11-07T02:50:28.335Z,88.90
2022-11-07T02:51:28.330Z,88.80
2022-11-07T02:52:28.314Z,88.70
2022-11-07T02:53:28.318Z,88.70
2022-11-07T02:54:28.302Z,88.96
2022-11-07T02:55:28.293Z,88.66
2022-11-07T02:56:28.290Z,88.66
2022-11-07T02:57:28.285Z,88.80
2022-11-07T02:58:28.278Z,88.76
2022-11-07T02:59:28.280Z,88.96
2022-11-07T03:00:28.250Z,88.90
2022-11-07T03:01:29.385Z,88.66
2022-11-07T03:02:28.440Z,89.01
2022-11-07T03:03:28.244Z,89.01
2022-11-07T03:04:28.246Z,89.07
2022-11-07T03:05:28.230Z,89.01
2022-11-07T03:06:28.230Z,89.48
2022-11-07T03:07:28.210Z,89.52
2022-11-07T03:08:28.203Z,89.01
2022-11-07T03:09:29.222Z,89.58
2022-11-07T03:10:28.200Z,89.37
2022-11-07T03:11:28.190Z,89.58
2022-11-07T03:12:28.192Z,89.58
2022-11-07T03:13:28.173Z,89.62
2022-11-07T03:14:28.194Z,89.52
2022-11-07T03:15:28.166Z,89.83
2022-11-07T03:16:28.168Z,89.93
2022-11-07T03:17:28.150Z,90.03
2022-11-07T03:18:28.150Z,90.03
2022-11-07T03:19:28.134Z,90.14
2022-11-07T03:20:28.133Z,89.89
2022-11-07T03:21:28.146Z,89.89
2022-11-07T03:22:28.135Z,90.20
2022-11-07T03:23:28.117Z,90.14
2022-11-07T03:24:28.111Z,89.99
2022-11-07T03:25:28.100Z,89.69
2022-11-07T03:26:28.094Z,90.40
2022-11-07T03:27:28.100Z,90.55
2022-11-07T03:28:28.071Z,90.75
2022-11-07T03:29:28.078Z,90.55
2022-11-07T03:30:28.071Z,90.55
2022-11-07T03:31:28.042Z,90.71
2022-11-07T03:32:28.063Z,90.71
2022-11-07T03:33:28.047Z,90.81
2022-11-07T03:34:28.053Z,90.75
2022-11-07T03:35:28.029Z,90.75
2022-11-07T03:36:28.024Z,90.85
2022-11-07T03:37:28.030Z,90.61
2022-11-07T03:38:28.022Z,90.95
2022-11-07T03:39:28.004Z,90.85
2022-11-07T03:40:27.998Z,91.37
2022-11-07T03:41:27.996Z,91.27
2022-11-07T03:42:27.998Z,91.16
2022-11-07T03:43:27.970Z,91.74
2022-11-07T03:44:27.970Z,91.37
2022-11-07T03:45:27.967Z,91.67
2022-11-07T03:46:27.954Z,91.67
2022-11-07T03:47:27.958Z,91.47
2022-11-07T03:48:27.954Z,91.42
2022-11-07T03:49:27.938Z,91.88
2022-11-07T03:50:27.934Z,91.47
2022-11-07T03:51:27.927Z,91.53
2022-11-07T03:52:27.911Z,91.57
2022-11-07T03:53:28.306Z,91.67
2022-11-07T03:54:27.911Z,91.22
2022-11-07T03:55:27.888Z,91.33
2022-11-07T03:56:27.976Z,91.53
2022-11-07T03:57:27.895Z,91.22
2022-11-07T03:58:27.885Z,91.42
2022-11-07T03:59:27.869Z,91.22
2022-11-07T04:00:27.861Z,91.22
2022-11-07T04:01:27.994Z,91.02
2022-11-07T04:02:28.049Z,91.53
2022-11-07T04:03:27.837Z,91.02
2022-11-07T04:04:27.847Z,91.42
2022-11-07T04:05:27.860Z,91.63
2022-11-07T04:06:27.830Z,90.87
2022-11-07T04:07:27.818Z,90.87
2022-11-07T04:08:27.812Z,91.28
2022-11-07T04:09:27.808Z,91.08
2022-11-07T04:10:27.817Z,91.38
2022-11-07T04:11:27.796Z,91.18
2022-11-07T04:12:27.791Z,91.28
2022-11-07T04:13:27.775Z,90.97
2022-11-07T04:14:27.764Z,91.69
2022-11-07T04:15:27.781Z,91.08
2022-11-07T04:16:27.785Z,91.59
2022-11-07T04:17:27.752Z,91.69
2022-11-07T04:18:27.740Z,91.49
2022-11-07T04:19:27.744Z,91.59
2022-11-07T04:20:27.728Z,91.69
2022-11-07T04:21:27.744Z,91.28
2022-11-07T04:22:27.720Z,91.59
2022-11-07T04:23:27.720Z,92.14
2022-11-07T04:24:27.710Z,91.63
2022-11-07T04:25:27.705Z,92.21
2022-11-07T04:26:27.689Z,92.31
2022-11-07T04:27:27.685Z,92.46
2022-11-07T04:28:27.684Z,92.35
2022-11-07T04:29:27.681Z,92.55
2022-11-07T04:30:27.656Z,92.86
2022-11-07T04:31:28.672Z,92.97
2022-11-07T04:32:27.668Z,92.66
2022-11-07T04:33:28.645Z,93.38
2022-11-07T04:34:27.632Z,93.07
2022-11-07T04:35:27.629Z,93.17
2022-11-07T04:36:27.628Z,93.07
2022-11-07T04:37:27.628Z,93.27
2022-11-07T04:38:27.615Z,92.76
2022-11-07T04:39:27.601Z,93.17
2022-11-07T04:40:27.612Z,93.07
2022-11-07T04:41:27.603Z,93.07
2022-11-07T04:42:27.592Z,92.97
2022-11-07T04:43:27.591Z,92.97
2022-11-07T04:44:27.579Z,93.17
2022-11-07T04:45:27.556Z,93.17
2022-11-07T04:46:27.555Z,93.07
2022-11-07T04:47:27.556Z,93.27
2022-11-07T04:48:27.559Z,93.38
2022-11-07T04:49:27.544Z,92.97
2022-11-07T04:50:27.535Z,93.27
2022-11-07T04:51:27.527Z,92.93
2022-11-07T04:52:27.515Z,92.93
2022-11-07T04:53:27.507Z,92.93
2022-11-07T04:54:28.511Z,92.61
2022-11-07T04:55:27.559Z,92.51
2022-11-07T04:56:33.274Z,92.31
2022-11-07T04:57:29.476Z,92.21
2022-11-07T04:58:27.484Z,92.10
2022-11-07T04:59:27.513Z,92.06
2022-11-07T05:00:27.481Z,92.31
2022-11-07T05:01:27.555Z,92.21
2022-11-07T05:02:27.631Z,92.21
2022-11-07T05:03:27.444Z,92.27
2022-11-07T05:04:27.454Z,91.65
2022-11-07T05:05:27.453Z,92.27
2022-11-07T05:06:27.447Z,91.80
2022-11-07T05:07:27.446Z,92.36
2022-11-07T05:08:27.420Z,91.75
2022-11-07T05:09:27.399Z,91.96
2022-11-07T05:10:27.411Z,91.96
2022-11-07T05:11:27.408Z,92.27
2022-11-07T05:12:27.430Z,92.06
2022-11-07T05:13:27.393Z,92.06
2022-11-07T05:14:27.376Z,92.16
2022-11-07T05:15:27.377Z,92.06
2022-11-07T05:16:27.364Z,91.96
2022-11-07T05:17:28.363Z,92.27
2022-11-07T05:18:27.344Z,91.55
2022-11-07T05:19:27.339Z,92.57
2022-11-07T05:20:27.335Z,92.57
2022-11-07T05:21:27.336Z,92.16
2022-11-07T05:22:27.328Z,92.68
2022-11-07T05:23:27.312Z,92.27
2022-11-07T05:24:27.320Z,92.68
2022-11-07T05:25:27.315Z,92.68
2022-11-07T05:26:27.312Z,92.57
2022-11-07T05:27:27.285Z,92.88
2022-11-07T05:28:35.284Z,92.78
2022-11-07T05:29:28.267Z,92.78
2022-11-07T05:30:27.279Z,93.19
2022-11-07T05:31:27.261Z,92.47
2022-11-07T05:32:27.269Z,93.08
2022-11-07T05:33:27.242Z,93.29
2022-11-07T05:34:27.231Z,93.29
2022-11-07T05:35:27.235Z,93.08
2022-11-07T05:36:27.225Z,93.29
2022-11-07T05:37:27.232Z,93.29
2022-11-07T05:38:27.212Z,93.23
2022-11-07T05:39:27.212Z,93.19
2022-11-07T05:40:27.196Z,93.29
2022-11-07T05:41:27.183Z,93.08
2022-11-07T05:42:27.205Z,93.19
2022-11-07T05:43:27.183Z,93.29
2022-11-07T05:44:27.167Z,92.98
2022-11-07T05:45:27.155Z,93.19
2022-11-07T05:46:28.784Z,93.29
2022-11-07T05:47:27.147Z,92.98
2022-11-07T05:48:27.184Z,93.08
2022-11-07T05:49:27.138Z,93.08
2022-11-07T05:50:27.140Z,93.19
2022-11-07T05:51:27.119Z,93.19
2022-11-07T05:52:27.117Z,93.08
2022-11-07T05:53:27.114Z,93.29
2022-11-07T05:54:27.111Z,93.29
2022-11-07T05:55:27.092Z,93.60
2022-11-07T05:56:27.083Z,93.70
2022-11-07T05:57:27.079Z,93.29
2022-11-07T05:58:27.083Z,93.39
2022-11-07T05:59:27.067Z,93.49
2022-11-07T06:00:27.056Z,93.29
2022-11-07T06:01:27.069Z,93.29
2022-11-07T06:02:27.199Z,93.39
2022-11-07T06:03:27.074Z,93.29
2022-11-07T06:04:27.028Z,93.29
2022-11-07T06:05:27.018Z,93.08
2022-11-07T06:06:27.016Z,93.08
2022-11-07T06:07:27.006Z,93.29
2022-11-07T06:08:27.001Z,93.29
2022-11-07T06:09:27.034Z,93.29
2022-11-07T06:10:26.987Z,93.25
2022-11-07T06:11:26.980Z,93.29
2022-11-07T06:12:26.976Z,93.19
2022-11-07T06:13:26.967Z,93.39
2022-11-07T06:14:26.963Z,93.08
2022-11-07T06:15:26.955Z,93.39
2022-11-07T06:16:26.951Z,93.60
2022-11-07T06:17:26.940Z,94.01
2022-11-07T06:18:26.936Z,93.90
2022-11-07T06:19:26.947Z,93.90
2022-11-07T06:20:26.924Z,93.90
2022-11-07T06:21:26.938Z,93.90
2022-11-07T06:22:26.902Z,94.01
2022-11-07T06:23:27.902Z,94.01
2022-11-07T06:24:26.917Z,94.01
2022-11-07T06:25:26.906Z,93.90
2022-11-07T06:26:26.877Z,93.90
2022-11-07T06:27:26.878Z,94.01
2022-11-07T06:28:26.867Z,94.21
2022-11-07T06:29:26.878Z,94.21
2022-11-07T06:30:26.870Z,94.32
2022-11-07T06:31:26.843Z,94.36
2022-11-07T06:32:26.883Z,94.42
2022-11-07T06:33:26.831Z,94.52
2022-11-07T06:34:26.830Z,94.32
2022-11-07T06:35:26.823Z,94.32
2022-11-07T06:36:26.811Z,94.32
2022-11-07T06:37:26.798Z,93.96
2022-11-07T06:38:26.791Z,94.37
2022-11-07T06:39:26.800Z,94.11
2022-11-07T06:40:26.796Z,94.07
2022-11-07T06:41:26.776Z,94.27
2022-11-07T06:42:26.766Z,94.11
2022-11-07T06:43:26.899Z,94.21
2022-11-07T06:44:27.783Z,94.27
2022-11-07T06:45:26.747Z,94.48
2022-11-07T06:46:26.739Z,93.86
2022-11-07T06:47:26.735Z,94.07
2022-11-07T06:48:26.730Z,94.07
2022-11-07T06:49:26.736Z,94.37
2022-11-07T06:50:26.732Z,94.37
2022-11-07T06:51:26.707Z,94.07
2022-11-07T06:52:26.805Z,93.76
2022-11-07T06:53:26.691Z,94.07
2022-11-07T06:54:26.707Z,94.17
2022-11-07T06:55:26.695Z,94.37
2022-11-07T06:56:26.667Z,94.17
2022-11-07T06:57:26.658Z,94.23
2022-11-07T06:58:26.659Z,94.48
2022-11-07T06:59:26.650Z,94.43
2022-11-07T07:00:26.875Z,94.27
2022-11-07T07:01:26.824Z,94.33
2022-11-07T07:02:52.194Z,94.02
2022-11-07T07:03:28.627Z,93.62
2022-11-07T07:04:26.618Z,93.92
2022-11-07T07:05:26.627Z,93.92
2022-11-07T07:06:26.601Z,93.51
2022-11-07T07:07:26.600Z,93.92
2022-11-07T07:08:26.583Z,93.30
2022-11-07T07:09:26.583Z,93.51
2022-11-07T07:10:26.582Z,93.41
2022-11-07T07:11:26.563Z,93.67
2022-11-07T07:12:26.561Z,93.47
2022-11-07T07:13:26.554Z,93.67
2022-11-07T07:14:26.548Z,93.37
2022-11-07T07:15:26.542Z,93.16
2022-11-07T07:16:26.544Z,92.85
2022-11-07T07:17:26.523Z,92.71
2022-11-07T07:18:26.511Z,92.75
2022-11-07T07:19:26.511Z,92.85
2022-11-07T07:20:26.503Z,92.50
2022-11-07T07:21:26.498Z,92.30
2022-11-07T07:22:26.487Z,91.66
2022-11-07T07:23:26.467Z,88.82
2022-11-07T07:24:26.553Z,86.29
2022-11-07T07:25:26.471Z,85.57
2022-11-07T07:26:26.487Z,84.41
2022-11-07T07:27:26.434Z,83.56
2022-11-07T07:28:26.438Z,82.60
2022-11-07T07:29:26.434Z,81.79
2022-11-07T07:30:26.420Z,81.58
2022-11-07T07:31:26.443Z,82.23
2022-11-07T07:32:26.407Z,81.79
2022-11-07T07:33:26.407Z,82.43
2022-11-07T07:34:26.403Z,83.29
2022-11-07T07:35:28.496Z,83.49
2022-11-07T07:36:27.395Z,83.70
2022-11-07T07:37:26.371Z,83.49
2022-11-07T07:38:26.371Z,83.53
2022-11-07T07:39:26.358Z,84.39
2022-11-07T07:40:26.445Z,85.24
2022-11-07T07:41:26.355Z,86.36
2022-11-07T07:42:26.359Z,86.41
2022-11-07T07:43:26.331Z,86.82
2022-11-07T07:44:26.332Z,86.67
2022-11-07T07:45:26.351Z,86.18
2022-11-07T07:46:26.323Z,85.13
2022-11-07T07:47:26.307Z,84.20
2022-11-07T07:48:26.287Z,83.25
2022-11-07T07:49:26.291Z,82.33
2022-11-07T07:50:26.309Z,82.29
2022-11-07T07:51:26.283Z,82.29
2022-11-07T07:52:26.279Z,81.99
2022-11-07T07:53:26.266Z,80.49
2022-11-07T07:54:26.257Z,80.08
2022-11-07T07:55:26.261Z,80.42
2022-11-07T07:56:26.346Z,81.04
2022-11-07T07:57:26.244Z,80.22
2022-11-07T07:58:26.253Z,80.93
2022-11-07T07:59:26.237Z,80.99
2022-11-07T08:00:26.223Z,81.13
2022-11-07T08:01:26.365Z,80.52
2022-11-07T08:02:26.305Z,81.79
2022-11-07T08:03:29.378Z,82.29
2022-11-07T08:04:27.206Z,82.84
2022-11-07T08:05:26.187Z,83.39
2022-11-07T08:06:26.166Z,84.34
2022-11-07T08:07:26.158Z,84.39
2022-11-07T08:08:26.182Z,85.16
2022-11-07T08:09:26.157Z,85.21
2022-11-07T08:10:43.016Z,84.59
2022-11-07T08:11:28.173Z,84.86
2022-11-07T08:12:26.250Z,85.51
2022-11-07T08:13:26.151Z,85.71
2022-11-07T08:14:26.120Z,86.29
2022-11-07T08:15:26.115Z,85.61
2022-11-07T08:16:26.107Z,85.51
2022-11-07T08:17:26.113Z,85.27
2022-11-07T08:18:26.095Z,84.75
2022-11-07T08:19:26.083Z,84.86
2022-11-07T08:20:27.085Z,85.57
2022-11-07T08:21:26.079Z,85.57
2022-11-07T08:22:26.071Z,85.51
2022-11-07T08:23:26.071Z,85.88
2022-11-07T08:24:26.066Z,85.88
2022-11-07T08:25:26.047Z,85.61
2022-11-07T08:26:26.073Z,85.41
2022-11-07T08:27:26.040Z,85.37
2022-11-07T08:28:26.118Z,85.61
2022-11-07T08:29:26.042Z,85.57
2022-11-07T08:30:26.114Z,85.16
2022-11-07T08:31:26.014Z,84.72
2022-11-07T08:32:26.006Z,83.70
2022-11-07T08:33:26.034Z,83.49
2022-11-07T08:34:26.017Z,84.00
2022-11-07T08:35:25.993Z,83.49
2022-11-07T08:36:25.989Z,83.18
2022-11-07T08:37:25.980Z,83.80
2022-11-07T08:38:25.978Z,83.90
2022-11-07T08:39:25.988Z,84.14
2022-11-07T08:40:25.946Z,84.34
2022-11-07T08:41:25.947Z,84.86
2022-11-07T08:42:25.947Z,85.47
2022-11-07T08:43:25.941Z,84.41
2022-11-07T08:44:25.942Z,84.25
2022-11-07T08:45:25.922Z,84.55
2022-11-07T08:46:25.915Z,84.04
2022-11-07T08:47:25.923Z,84.75
2022-11-07T08:48:25.928Z,84.59
2022-11-07T08:49:25.901Z,85.06
2022-11-07T08:50:26.031Z,84.86
2022-11-07T08:51:25.886Z,85.06
2022-11-07T08:52:25.872Z,84.75
2022-11-07T08:53:25.877Z,85.06
2022-11-07T08:54:25.879Z,85.16
2022-11-07T08:55:25.902Z,85.37
2022-11-07T08:56:25.851Z,85.16
2022-11-07T08:57:25.855Z,85.57
2022-11-07T08:58:29.822Z,85.68
2022-11-07T08:59:26.847Z,85.27
2022-11-07T09:00:25.850Z,85.16
2022-11-07T09:01:25.999Z,85.37
2022-11-07T09:03:45.038Z,85.37
2022-11-07T09:04:27.825Z,85.16
2022-11-07T09:05:25.795Z,85.27
2022-11-07T09:06:25.790Z,85.47
2022-11-07T09:07:25.780Z,85.88
2022-11-07T09:08:25.790Z,85.22
2022-11-07T09:09:25.789Z,85.27
2022-11-07T09:10:25.758Z,84.51
2022-11-07T09:11:25.754Z,84.82
2022-11-07T09:12:25.751Z,84.31
2022-11-07T09:13:25.775Z,84.82
2022-11-07T09:14:25.747Z,84.41
2022-11-07T09:15:25.730Z,84.00
2022-11-07T09:16:25.718Z,83.65
2022-11-07T09:17:25.710Z,83.76
2022-11-07T09:18:25.711Z,83.45
2022-11-07T09:19:25.723Z,83.49
2022-11-07T09:20:25.690Z,83.90
2022-11-07T09:21:25.691Z,83.65
2022-11-07T09:22:25.682Z,84.06
2022-11-07T09:23:25.682Z,83.65
2022-11-07T09:24:25.687Z,83.25
2022-11-07T09:25:25.658Z,83.56
2022-11-07T09:26:25.706Z,83.35
2022-11-07T09:27:25.658Z,83.35
2022-11-07T09:28:25.643Z,83.45
2022-11-07T09:29:25.696Z,83.35
2022-11-07T09:30:25.623Z,83.65
2022-11-07T09:31:25.618Z,83.76
2022-11-07T09:32:43.802Z,84.17
2022-11-07T09:33:27.614Z,83.86
2022-11-07T09:34:25.615Z,83.65
2022-11-07T09:35:25.647Z,84.27
2022-11-07T09:36:25.646Z,83.65
2022-11-07T09:37:25.587Z,84.06
2022-11-07T09:38:25.606Z,84.27
2022-11-07T09:39:25.570Z,84.06
2022-11-07T09:40:25.594Z,83.56
2022-11-07T09:41:25.557Z,84.06
2022-11-07T09:42:25.566Z,84.17
2022-11-07T09:43:25.569Z,83.51
2022-11-07T09:44:30.920Z,83.65
2022-11-07T09:45:27.554Z,83.86
2022-11-07T09:46:25.521Z,83.92
2022-11-07T09:47:25.515Z,83.42
2022-11-07T09:48:25.518Z,83.31
2022-11-07T09:49:25.507Z,82.80
2022-11-07T09:50:25.507Z,82.87
2022-11-07T09:51:25.494Z,83.11
2022-11-07T09:52:25.509Z,83.31
2022-11-07T09:53:25.485Z,83.56
2022-11-07T09:54:25.477Z,83.65
2022-11-07T09:55:25.466Z,84.23
2022-11-07T09:56:25.467Z,84.06
2022-11-07T09:57:25.476Z,84.43
2022-11-07T09:58:25.453Z,83.82
2022-11-07T09:59:25.445Z,83.62
2022-11-07T10:00:25.434Z,83.76
2022-11-07T10:01:25.544Z,83.45
2022-11-07T10:02:25.482Z,83.42
2022-11-07T10:03:25.411Z,83.92
2022-11-07T10:04:26.708Z,84.03
2022-11-07T10:05:26.406Z,83.51
2022-11-07T10:06:25.397Z,83.11
2022-11-07T10:07:25.391Z,83.51
2022-11-07T10:08:25.403Z,83.42
2022-11-07T10:09:25.392Z,83.51
2022-11-07T10:10:25.381Z,83.27
2022-11-07T10:11:25.379Z,83.31
2022-11-07T10:12:25.373Z,82.97
2022-11-07T10:13:25.369Z,82.46
2022-11-07T10:14:25.354Z,82.26
2022-11-07T10:15:25.353Z,82.15
2022-11-07T10:16:25.369Z,82.15
2022-11-07T10:17:25.358Z,82.73
2022-11-07T10:18:25.334Z,82.32
2022-11-07T10:19:25.314Z,82.52
2022-11-07T10:20:25.443Z,82.15
2022-11-07T10:21:40.753Z,82.35
2022-11-07T10:22:27.308Z,82.26
2022-11-07T10:23:25.298Z,82.87
2022-11-07T10:24:25.306Z,82.62
2022-11-07T10:25:25.282Z,82.32
2022-11-07T10:26:25.274Z,82.05
2022-11-07T10:27:25.270Z,82.46
2022-11-07T10:28:25.262Z,82.35
2022-11-07T10:29:25.274Z,82.46
2022-11-07T10:30:25.253Z,82.97
2022-11-07T10:31:25.253Z,82.66
2022-11-07T10:32:25.242Z,82.87
2022-11-07T10:33:25.237Z,82.87
2022-11-07T10:34:25.213Z,82.56
2022-11-07T10:35:25.222Z,82.76
2022-11-07T10:36:25.230Z,82.56
2022-11-07T10:37:25.209Z,82.76
2022-11-07T10:38:25.213Z,82.66
2022-11-07T10:39:25.201Z,82.46
2022-11-07T10:40:25.189Z,82.80
2022-11-07T10:41:25.209Z,83.11
2022-11-07T10:42:25.183Z,83.21
2022-11-07T10:43:25.170Z,82.87
2022-11-07T10:44:25.332Z,83.11
2022-11-07T10:45:25.157Z,82.87
2022-11-07T10:46:25.156Z,82.87
2022-11-07T10:47:25.147Z,83.07
2022-11-07T10:48:25.140Z,82.97
2022-11-07T10:49:25.124Z,82.35
2022-11-07T10:50:25.126Z,82.26
2022-11-07T10:51:25.140Z,82.62
2022-11-07T10:52:25.107Z,82.26
2022-11-07T10:53:25.106Z,82.26
2022-11-07T10:54:25.098Z,82.87
2022-11-07T10:55:25.090Z,82.05
2022-11-07T10:56:25.088Z,82.15
2022-11-07T10:57:25.081Z,82.35
2022-11-07T10:58:25.092Z,82.46
2022-11-07T10:59:25.061Z,82.97
2022-11-07T11:00:25.058Z,83.07
2022-11-07T11:01:25.192Z,83.34
2022-11-07T11:02:25.140Z,82.35
2022-11-07T11:03:29.069Z,82.62
2022-11-07T11:04:27.038Z,82.87
2022-11-07T11:05:25.027Z,83.37
2022-11-07T11:06:25.021Z,82.62
2022-11-07T11:07:28.357Z,82.82
2022-11-07T11:08:26.013Z,82.82
2022-11-07T11:09:24.994Z,82.62
2022-11-07T11:10:24.982Z,82.21
2022-11-07T11:11:24.987Z,82.01
2022-11-07T11:12:24.986Z,82.21
2022-11-07T11:13:24.997Z,81.81
2022-11-07T11:14:24.971Z,80.79
2022-11-07T11:15:24.965Z,81.10
2022-11-07T11:16:24.985Z,81.51
2022-11-07T11:17:24.960Z,80.79
2022-11-07T11:18:24.983Z,80.99
2022-11-07T11:19:24.941Z,80.38
2022-11-07T11:20:24.933Z,81.06
2022-11-07T11:21:24.950Z,81.46
2022-11-07T11:22:24.925Z,81.57
2022-11-07T11:23:24.906Z,80.55
2022-11-07T11:24:24.914Z,80.55
2022-11-07T11:25:24.909Z,80.45
2022-11-07T11:26:24.917Z,80.49
2022-11-07T11:27:24.902Z,80.76
2022-11-07T11:28:24.910Z,80.35
2022-11-07T11:29:24.865Z,80.24
2022-11-07T11:30:25.874Z,80.79
2022-11-07T11:31:24.874Z,80.96
2022-11-07T11:32:24.869Z,81.20
2022-11-07T11:33:24.862Z,80.55
2022-11-07T11:34:24.826Z,80.18
2022-11-07T11:35:24.840Z,80.96
2022-11-07T11:36:24.866Z,80.76
2022-11-07T11:37:24.826Z,80.18
2022-11-07T11:38:24.831Z,80.79
2022-11-07T11:39:24.814Z,80.08
2022-11-07T11:40:24.805Z,80.79
2022-11-07T11:41:24.810Z,81.67
2022-11-07T11:42:24.818Z,81.20
2022-11-07T11:43:24.794Z,82.01
2022-11-07T11:44:24.790Z,82.32
2022-11-07T11:45:24.784Z,82.46
2022-11-07T11:46:24.777Z,81.91
2022-11-07T11:47:27.047Z,81.51
2022-11-07T11:48:24.760Z,81.60
2022-11-07T11:49:24.758Z,81.40
2022-11-07T11:50:24.745Z,81.51
2022-11-07T11:51:24.736Z,82.01
2022-11-07T11:52:24.726Z,81.87
2022-11-07T11:53:24.738Z,82.12
2022-11-07T11:54:24.712Z,82.21
2022-11-07T11:55:24.717Z,81.71
2022-11-07T11:56:24.742Z,81.77
2022-11-07T11:57:24.689Z,82.01
2022-11-07T11:58:24.694Z,81.91
2022-11-07T11:59:24.697Z,81.81
2022-11-07T12:00:24.669Z,81.71
2022-11-07T12:02:24.741Z,82.07
2022-11-07T12:03:24.665Z,81.91
2022-11-07T12:04:24.679Z,82.12
2022-11-07T12:05:24.655Z,82.01
2022-11-07T12:06:24.643Z,82.18
2022-11-07T12:07:24.666Z,82.18
2022-11-07T12:08:24.657Z,82.59
2022-11-07T12:09:24.625Z,82.42
2022-11-07T12:10:24.631Z,82.52
2022-11-07T12:11:24.619Z,82.82
2022-11-07T12:12:24.634Z,82.42
2022-11-07T12:13:24.607Z,82.52
2022-11-07T12:14:24.607Z,83.03
2022-11-07T12:15:24.598Z,82.82
2022-11-07T12:16:24.587Z,82.93
2022-11-07T12:17:24.587Z,83.44
2022-11-07T12:18:24.608Z,83.34
2022-11-07T12:19:24.586Z,83.34
2022-11-07T12:20:24.567Z,83.84
2022-11-07T12:21:24.547Z,83.64
2022-11-07T12:22:24.566Z,83.54
2022-11-07T12:23:24.556Z,83.89
2022-11-07T12:24:24.531Z,83.34
2022-11-07T12:25:24.529Z,83.34
2022-11-07T12:26:24.529Z,83.34
2022-11-07T12:27:27.148Z,83.23
2022-11-07T12:28:25.605Z,82.93
2022-11-07T12:29:24.503Z,83.23
2022-11-07T12:30:24.482Z,82.93
2022-11-07T12:31:24.486Z,83.54
2022-11-07T12:32:24.482Z,83.34
2022-11-07T12:33:24.477Z,83.34
2022-11-07T12:34:24.484Z,83.13
2022-11-07T12:35:24.477Z,83.23
2022-11-07T12:36:24.450Z,83.44
2022-11-07T12:37:24.446Z,83.13
2022-11-07T12:38:24.463Z,82.48
2022-11-07T12:39:24.446Z,82.48
2022-11-07T12:40:24.442Z,82.38
2022-11-07T12:41:24.435Z,82.59
2022-11-07T12:42:24.419Z,82.28
2022-11-07T12:43:24.413Z,82.28
2022-11-07T12:44:24.417Z,82.07
2022-11-07T12:45:24.414Z,82.59
2022-11-07T12:46:24.401Z,82.38
2022-11-07T12:47:24.391Z,81.87
2022-11-07T12:48:24.393Z,81.77
2022-11-07T12:49:24.407Z,82.28
2022-11-07T12:50:24.380Z,82.48
2022-11-07T12:51:24.367Z,82.18
2022-11-07T12:52:24.352Z,82.18
2022-11-07T12:53:24.351Z,82.48
2022-11-07T12:54:24.342Z,82.73